Time;durP1;ratioP1;P1;durP2;ratioP2;P2;SDS_P1;SDS_P2;PMS_P1;PMS_P2;Temp;Humidity;BMP_temperature;BMP_pressure;BME280_temperature;BME280_humidity;BME280_pressure;Samples;Min_cycle;Max_cycle;Signal;HPM_P1;HPM_P2
2021/05/07 00:02:18;;;;;;;1.23;1.20;;;;;;;;;;5008625;28;20030;-75
2021/05/07 00:04:43;;;;;;;1.27;1.23;;;;;;;;;;5008990;28;20020;-75
2021/05/07 00:07:11;;;;;;;1.10;1.10;;;;;;;;;;5009453;28;20034;-76
2021/05/07 00:09:36;;;;;;;;;;;;;;;;;;5008812;28;20025;-75
2021/05/07 00:12:04;;;;;;;1.30;1.20;;;;;;;;;;5008917;28;19916;-75
2021/05/07 00:14:29;;;;;;;1.30;1.20;;;;;;;;;;5006370;28;20030;-76
2021/05/07 00:16:56;;;;;;;1.38;1.27;;;;;;;;;;5010312;28;20510;-76
2021/05/07 00:19:21;;;;;;;1.25;1.10;;;;;;;;;;5000519;28;20021;-75
2021/05/07 00:21:46;;;;;;;1.40;1.30;;;;;;;;;;5008756;28;20022;-77
2021/05/07 00:24:11;;;;;;;1.35;1.10;;;;;;;;;;5010168;28;20033;-74
2021/05/07 00:26:37;;;;;;;1.40;1.30;;;;;;;;;;5010450;28;20041;-75
2021/05/07 00:29:02;;;;;;;1.30;1.20;;;;;;;;;;5011169;28;20578;-74
2021/05/07 00:31:30;;;;;;;1.30;1.20;;;;;;;;;;5010925;28;20417;-76
2021/05/07 00:33:55;;;;;;;1.30;1.20;;;;;;;;;;5009392;28;20076;-77
2021/05/07 00:36:20;;;;;;;1.02;1.02;;;;;;;;;;5009210;28;20037;-74
2021/05/07 00:38:46;;;;;;;1.25;1.20;;;;;;;;;;5009445;28;20546;-74
2021/05/07 00:41:11;;;;;;;1.33;1.23;;;;;;;;;;5008651;28;20049;-75
2021/05/07 00:43:40;;;;;;;1.17;1.08;;;;;;;;;;5007402;28;20062;-75
2021/05/07 00:46:05;;;;;;;1.10;1.10;;;;;;;;;;4995251;28;20054;-75
2021/05/07 00:48:30;;;;;;;1.23;1.10;;;;;;;;;;4990424;28;20069;-75
2021/05/07 00:50:56;;;;;;;1.00;1.00;;;;;;;;;;5010250;28;20025;-75
2021/05/07 00:53:21;;;;;;;1.10;1.10;;;;;;;;;;5010312;28;20025;-75
2021/05/07 00:55:47;;;;;;;0.90;0.90;;;;;;;;;;5009911;28;20033;-78
2021/05/07 00:58:12;;;;;;;1.10;1.10;;;;;;;;;;5009309;28;20391;-75
2021/05/07 01:00:37;;;;;;;1.00;1.00;;;;;;;;;;5010033;28;20022;-75
2021/05/07 01:03:03;;;;;;;3.08;1.15;;;;;;;;;;5008463;28;20096;-75
2021/05/07 01:05:29;;;;;;;1.25;1.20;;;;;;;;;;5010854;28;20014;-75
2021/05/07 01:07:54;;;;;;;1.13;1.10;;;;;;;;;;5009088;28;20416;-75
2021/05/07 01:10:20;;;;;;;1.30;1.20;;;;;;;;;;5010498;28;20017;-77
2021/05/07 01:12:50;;;;;;;1.10;1.10;;;;;;;;;;5008694;28;20030;-75
2021/05/07 01:15:25;;;;;;;1.20;1.10;;;;;;;;;;5010667;28;20025;-76
2021/05/07 01:17:52;;;;;;;1.45;1.10;;;;;;;;;;5008585;28;20029;-75
2021/05/07 01:20:21;;;;;;;1.10;1.10;;;;;;;;;;5007708;28;20042;-75
2021/05/07 01:22:48;;;;;;;1.20;1.20;;;;;;;;;;4989239;28;20432;-75
2021/05/07 01:25:16;;;;;;;1.20;1.20;;;;;;;;;;4994415;28;20029;-76
2021/05/07 01:27:43;;;;;;;1.10;1.10;;;;;;;;;;5007574;28;20083;-75
2021/05/07 01:30:16;;;;;;;1.10;1.10;;;;;;;;;;5002397;28;20053;-76
2021/05/07 01:32:44;;;;;;;1.25;1.20;;;;;;;;;;5004798;28;20022;-75
2021/05/07 01:35:15;;;;;;;1.40;1.30;;;;;;;;;;4991949;28;20435;-76
2021/05/07 01:37:44;;;;;;;1.45;1.35;;;;;;;;;;4999994;28;20033;-75
2021/05/07 01:40:10;;;;;;;1.23;1.20;;;;;;;;;;4999121;28;20148;-75
2021/05/07 01:42:35;;;;;;;1.40;1.30;;;;;;;;;;5006076;28;20119;-76
2021/05/07 01:45:02;;;;;;;1.33;1.23;;;;;;;;;;5007096;28;20049;-76
2021/05/07 01:47:27;;;;;;;1.40;1.30;;;;;;;;;;5006612;28;20026;-76
2021/05/07 01:49:53;;;;;;;2.88;1.60;;;;;;;;;;5003195;28;20278;-76
2021/05/07 01:52:18;;;;;;;1.60;1.50;;;;;;;;;;5001291;28;20034;-76
2021/05/07 01:54:43;;;;;;;1.50;1.40;;;;;;;;;;5006718;28;20271;-76
2021/05/07 01:57:11;;;;;;;1.35;1.25;;;;;;;;;;5002762;28;20038;-76
2021/05/07 01:59:36;;;;;;;1.48;1.38;;;;;;;;;;5007698;28;20025;-76
2021/05/07 02:02:01;;;;;;;1.65;1.50;;;;;;;;;;5006929;28;20547;-75
2021/05/07 02:04:26;;;;;;;1.48;1.38;;;;;;;;;;5003227;28;20533;-76
2021/05/07 02:06:52;;;;;;;1.50;1.40;;;;;;;;;;5003315;28;20176;-76
2021/05/07 02:09:17;;;;;;;2.42;1.70;;;;;;;;;;4988961;28;20025;-76
2021/05/07 02:11:42;;;;;;;1.75;1.50;;;;;;;;;;5012461;28;20037;-76
2021/05/07 02:14:07;;;;;;;1.67;1.58;;;;;;;;;;5011812;28;20495;-76
2021/05/07 02:16:33;;;;;;;2.30;1.55;;;;;;;;;;5010586;28;20045;-76
2021/05/07 02:18:58;;;;;;;1.55;1.45;;;;;;;;;;5003339;28;20109;-76
2021/05/07 02:21:23;;;;;;;1.60;1.50;;;;;;;;;;5010386;28;20017;-76
2021/05/07 02:23:48;;;;;;;1.67;1.58;;;;;;;;;;5008539;28;20076;-76
2021/05/07 02:26:14;;;;;;;1.63;1.52;;;;;;;;;;5004314;28;20494;-76
2021/05/07 02:28:39;;;;;;;1.60;1.50;;;;;;;;;;4999273;28;20033;-76
2021/05/07 02:31:04;;;;;;;1.70;1.60;;;;;;;;;;4993096;28;20026;-76
2021/05/07 02:33:29;;;;;;;1.73;1.63;;;;;;;;;;5009998;28;20137;-75
2021/05/07 02:35:55;;;;;;;2.15;1.77;;;;;;;;;;5006512;28;20026;-76
2021/05/07 02:38:20;;;;;;;1.50;1.40;;;;;;;;;;5010491;28;20026;-75
2021/05/07 02:40:45;;;;;;;2.35;1.90;;;;;;;;;;5010817;28;20032;-76
2021/05/07 02:43:11;;;;;;;2.00;1.73;;;;;;;;;;5010913;28;20036;-76
2021/05/07 02:45:38;;;;;;;2.45;1.75;;;;;;;;;;4999857;28;20022;-76
2021/05/07 02:48:04;;;;;;;2.67;1.80;;;;;;;;;;4991834;28;20081;-76
2021/05/07 02:50:32;;;;;;;2.05;1.70;;;;;;;;;;5007447;28;20026;-76
2021/05/07 02:52:57;;;;;;;;;;;;;;;;;;5011299;28;20033;-76
2021/05/07 02:55:22;;;;;;;2.50;1.90;;;;;;;;;;5006194;28;19918;-76
2021/05/07 02:57:48;;;;;;;2.13;1.80;;;;;;;;;;5012099;28;20073;-75
2021/05/07 03:00:13;;;;;;;1.92;1.70;;;;;;;;;;5011723;28;20472;-76
2021/05/07 03:02:38;;;;;;;2.03;1.80;;;;;;;;;;5007933;28;20037;-76
2021/05/07 03:05:04;;;;;;;2.15;1.80;;;;;;;;;;5011577;28;20045;-76
2021/05/07 03:07:29;;;;;;;1.90;1.70;;;;;;;;;;5011165;28;20033;-76
2021/05/07 03:09:54;;;;;;;1.73;1.60;;;;;;;;;;4999835;28;20022;-76
2021/05/07 03:12:20;;;;;;;1.80;1.60;;;;;;;;;;5010858;28;20033;-76
2021/05/07 03:14:45;;;;;;;3.08;1.92;;;;;;;;;;5010814;28;20041;-76
2021/05/07 03:17:10;;;;;;;1.70;1.60;;;;;;;;;;5008525;28;20026;-75
2021/05/07 03:19:35;;;;;;;1.98;1.70;;;;;;;;;;5007548;28;20026;-76
2021/05/07 03:22:01;;;;;;;2.47;1.60;;;;;;;;;;5010046;28;20030;-75
2021/05/07 03:24:26;;;;;;;1.88;1.67;;;;;;;;;;5008261;28;20073;-75
2021/05/07 03:26:51;;;;;;;2.10;1.90;;;;;;;;;;5008053;28;20148;-75
2021/05/07 03:29:17;;;;;;;2.03;1.75;;;;;;;;;;5003661;28;20018;-76
2021/05/07 03:31:42;;;;;;;2.58;1.90;;;;;;;;;;5010499;28;20412;-76
2021/05/07 03:34:07;;;;;;;2.00;1.80;;;;;;;;;;5003166;28;20071;-75
2021/05/07 03:36:32;;;;;;;2.63;1.90;;;;;;;;;;5010453;28;20371;-75
2021/05/07 03:38:58;;;;;;;2.58;2.00;;;;;;;;;;5004200;28;20459;-77
2021/05/07 03:41:23;;;;;;;2.40;1.90;;;;;;;;;;4998370;28;20081;-75
2021/05/07 03:43:49;;;;;;;2.50;1.90;;;;;;;;;;5010530;28;20022;-75
2021/05/07 03:46:14;;;;;;;2.92;2.13;;;;;;;;;;5007065;28;20156;-76
2021/05/07 03:48:39;;;;;;;2.83;2.08;;;;;;;;;;5006322;28;20116;-75
2021/05/07 03:51:04;;;;;;;2.33;2.10;;;;;;;;;;5006881;28;20183;-75
2021/05/07 03:53:30;;;;;;;3.22;2.30;;;;;;;;;;5009731;28;20033;-75
2021/05/07 03:55:56;;;;;;;3.27;2.30;;;;;;;;;;5007802;28;20460;-75
2021/05/07 03:58:21;;;;;;;4.65;2.40;;;;;;;;;;5009755;28;20606;-75
2021/05/07 04:00:47;;;;;;;3.08;2.42;;;;;;;;;;5006463;28;20028;-75
2021/05/07 04:03:12;;;;;;;2.88;2.53;;;;;;;;;;5010852;28;20520;-75
2021/05/07 04:05:37;;;;;;;3.42;2.63;;;;;;;;;;5012308;28;20021;-76
2021/05/07 04:08:21;;;;;;;4.80;2.90;;;;;;;;;;5011318;28;20034;-75
2021/05/07 04:10:55;;;;;;;3.90;3.00;;;;;;;;;;5012516;28;20606;-75
2021/05/07 04:15:54;;;;;;;5.20;3.33;;;;;;;;;;5010401;28;20053;-75
2021/05/07 04:18:20;;;;;;;3.90;3.30;;;;;;;;;;5011213;28;20507;-74
2021/05/07 04:20:45;;;;;;;4.43;3.30;;;;;;;;;;4997390;28;20029;-75
2021/05/07 04:23:10;;;;;;;2.60;2.20;;;;;;;;;;5007739;28;20026;-75
2021/05/07 04:25:36;;;;;;;2.75;2.03;;;;;;;;;;5008626;28;20105;-75
2021/05/07 04:28:01;;;;;;;2.85;2.03;;;;;;;;;;5007754;28;20027;-76
2021/05/07 04:30:26;;;;;;;2.75;1.95;;;;;;;;;;5013978;28;20353;-76
2021/05/07 04:32:52;;;;;;;2.35;2.00;;;;;;;;;;5011642;28;20241;-76
2021/05/07 04:35:17;;;;;;;2.10;1.88;;;;;;;;;;5013089;28;20373;-75
2021/05/07 04:37:42;;;;;;;3.28;2.10;;;;;;;;;;5002533;28;20061;-75
2021/05/07 04:40:08;;;;;;;2.63;2.10;;;;;;;;;;5005329;28;20025;-76
2021/05/07 04:42:33;;;;;;;3.17;2.40;;;;;;;;;;5008587;28;20030;-76
2021/05/07 04:44:58;;;;;;;3.95;2.50;;;;;;;;;;5009692;28;20053;-75
2021/05/07 04:47:24;;;;;;;4.07;2.67;;;;;;;;;;5007403;28;20026;-76
2021/05/07 04:49:49;;;;;;;5.55;2.67;;;;;;;;;;5009485;28;20030;-75
2021/05/07 04:52:16;;;;;;;3.67;2.80;;;;;;;;;;5009451;28;20071;-76
2021/05/07 04:54:41;;;;;;;3.78;2.65;;;;;;;;;;5008018;28;20026;-76
2021/05/07 04:57:07;;;;;;;3.83;3.00;;;;;;;;;;5005219;28;20073;-77
2021/05/07 04:59:32;;;;;;;3.58;2.60;;;;;;;;;;5007385;28;20271;-76
2021/05/07 05:01:57;;;;;;;3.90;2.75;;;;;;;;;;5006190;28;20443;-76
2021/05/07 05:04:23;;;;;;;3.17;2.42;;;;;;;;;;5009700;28;20060;-75
2021/05/07 05:06:48;;;;;;;3.63;2.70;;;;;;;;;;5003451;28;20102;-76
2021/05/07 05:09:15;;;;;;;4.00;2.60;;;;;;;;;;5005128;28;20097;-76
2021/05/07 05:11:40;;;;;;;3.55;2.60;;;;;;;;;;5010211;28;20022;-76
2021/05/07 05:14:06;;;;;;;4.30;2.65;;;;;;;;;;5005649;28;20072;-76
2021/05/07 05:16:31;;;;;;;4.70;2.50;;;;;;;;;;5003448;28;20022;-75
2021/05/07 05:18:56;;;;;;;3.15;2.58;;;;;;;;;;5002427;28;20049;-76
2021/05/07 05:21:21;;;;;;;4.22;2.72;;;;;;;;;;5007943;28;20037;-76
2021/05/07 05:23:48;;;;;;;4.45;3.13;;;;;;;;;;5003507;28;20026;-76
2021/05/07 05:26:13;;;;;;;3.45;2.80;;;;;;;;;;5022491;28;20021;-76
2021/05/07 05:28:39;;;;;;;4.65;2.97;;;;;;;;;;5006480;28;20033;-76
2021/05/07 05:31:06;;;;;;;5.43;2.83;;;;;;;;;;5006614;28;20014;-76
2021/05/07 05:33:32;;;;;;;3.70;3.10;;;;;;;;;;5007867;28;20475;-75
2021/05/07 05:35:57;;;;;;;4.25;3.05;;;;;;;;;;5007727;28;20029;-75
2021/05/07 05:38:22;;;;;;;4.00;2.78;;;;;;;;;;5002332;28;20034;-77
2021/05/07 05:40:48;;;;;;;3.85;2.92;;;;;;;;;;5007924;28;20093;-75
2021/05/07 05:43:14;;;;;;;4.15;2.80;;;;;;;;;;5007147;28;20038;-76
2021/05/07 05:45:39;;;;;;;4.07;3.10;;;;;;;;;;4999098;28;20018;-76
2021/05/07 05:48:14;;;;;;;3.75;2.92;;;;;;;;;;5006976;28;20112;-77
2021/05/07 05:50:46;;;;;;;4.72;2.92;;;;;;;;;;5004975;28;20022;-77
2021/05/07 05:53:11;;;;;;;3.80;2.63;;;;;;;;;;4997321;28;20029;-77
2021/05/07 05:55:39;;;;;;;4.38;2.83;;;;;;;;;;5009385;28;20026;-76
2021/05/07 05:58:05;;;;;;;4.20;2.90;;;;;;;;;;5002267;28;20034;-75
2021/05/07 06:00:31;;;;;;;3.53;2.70;;;;;;;;;;5000707;28;20451;-75
2021/05/07 06:02:56;;;;;;;4.63;2.70;;;;;;;;;;4998656;28;20094;-75
2021/05/07 06:05:21;;;;;;;4.60;2.88;;;;;;;;;;5005200;28;20396;-77
2021/05/07 06:07:47;;;;;;;3.85;2.72;;;;;;;;;;5008794;28;20532;-76
2021/05/07 06:10:13;;;;;;;3.50;2.30;;;;;;;;;;4994042;28;20283;-76
2021/05/07 06:12:40;;;;;;;3.08;2.25;;;;;;;;;;5006012;28;20122;-76
2021/05/07 06:15:06;;;;;;;3.30;2.45;;;;;;;;;;5008460;28;20022;-77
2021/05/07 06:17:31;;;;;;;3.33;2.42;;;;;;;;;;4994028;28;20026;-76
2021/05/07 06:19:57;;;;;;;3.90;2.63;;;;;;;;;;5006946;28;20049;-76
2021/05/07 06:22:24;;;;;;;4.60;2.80;;;;;;;;;;5004087;28;20408;-76
2021/05/07 06:24:50;;;;;;;2.65;2.28;;;;;;;;;;5007278;28;20435;-76
2021/05/07 06:27:15;;;;;;;4.95;2.50;;;;;;;;;;5003574;28;20026;-75
2021/05/07 06:29:40;;;;;;;4.05;3.00;;;;;;;;;;5000374;28;20143;-75
2021/05/07 06:32:06;;;;;;;4.10;2.92;;;;;;;;;;5002818;28;20030;-78
2021/05/07 06:34:31;;;;;;;3.50;2.60;;;;;;;;;;5003138;28;20533;-74
2021/05/07 06:36:56;;;;;;;3.83;2.65;;;;;;;;;;5004675;28;20126;-75
2021/05/07 06:39:24;;;;;;;5.10;2.90;;;;;;;;;;4998893;28;20034;-75
2021/05/07 06:41:51;;;;;;;6.93;2.80;;;;;;;;;;5004717;28;20022;-73
2021/05/07 06:44:17;;;;;;;4.00;3.03;;;;;;;;;;4999699;28;20117;-77
2021/05/07 06:46:42;;;;;;;3.95;3.00;;;;;;;;;;5021830;28;20133;-76
2021/05/07 06:49:07;;;;;;;4.10;2.80;;;;;;;;;;5006961;28;20501;-75
2021/05/07 06:51:33;;;;;;;4.85;3.00;;;;;;;;;;5012153;28;20368;-76
2021/05/07 06:53:58;;;;;;;4.15;2.83;;;;;;;;;;5006463;28;20380;-76
2021/05/07 06:56:23;;;;;;;4.28;2.55;;;;;;;;;;5020168;28;20128;-76
2021/05/07 06:58:49;;;;;;;3.97;2.95;;;;;;;;;;5014743;28;20057;-76
2021/05/07 07:01:14;;;;;;;5.18;3.13;;;;;;;;;;5013746;28;20681;-75
2021/05/07 07:03:39;;;;;;;3.38;2.83;;;;;;;;;;5006776;28;20025;-75
2021/05/07 07:06:04;;;;;;;4.20;3.15;;;;;;;;;;5048780;28;20025;-76
2021/05/07 07:08:32;;;;;;;3.80;3.13;;;;;;;;;;5011456;28;20021;-75
2021/05/07 07:10:58;;;;;;;4.72;3.10;;;;;;;;;;5024817;28;20091;-75
2021/05/07 07:13:26;;;;;;;5.00;3.05;;;;;;;;;;5014881;28;20029;-75
2021/05/07 07:15:53;;;;;;;;;;;;;;;;;;5022217;28;20039;-76
2021/05/07 07:18:18;;;;;;;;;;;;;;;;;;5012245;28;20035;-75
2021/05/07 07:20:44;;;;;;;3.92;3.10;;;;;;;;;;5012300;28;20021;-74
2021/05/07 07:23:09;;;;;;;4.80;3.08;;;;;;;;;;5021213;28;20041;-79
2021/05/07 07:25:34;;;;;;;5.05;3.30;;;;;;;;;;5020178;28;20047;-74
2021/05/07 07:28:00;;;;;;;5.25;3.17;;;;;;;;;;5011131;28;20020;-74
2021/05/07 07:30:25;;;;;;;4.90;3.22;;;;;;;;;;5013289;28;20026;-74
2021/05/07 07:32:53;;;;;;;6.82;3.05;;;;;;;;;;5008655;28;20056;-74
2021/05/07 07:35:18;;;;;;;4.07;2.88;;;;;;;;;;5021372;28;20484;-75
2021/05/07 07:37:43;;;;;;;6.03;3.25;;;;;;;;;;5013558;28;20068;-76
2021/05/07 07:40:09;;;;;;;5.65;3.10;;;;;;;;;;5022353;28;20037;-75
2021/05/07 07:42:35;;;;;;;4.80;3.38;;;;;;;;;;5013756;28;20092;-75
2021/05/07 07:45:00;;;;;;;3.75;2.70;;;;;;;;;;5008791;28;20125;-75
2021/05/07 07:47:25;;;;;;;4.32;3.17;;;;;;;;;;5010900;28;20104;-74
2021/05/07 07:49:50;;;;;;;4.40;2.92;;;;;;;;;;5009186;28;20097;-76
2021/05/07 07:52:16;;;;;;;4.22;3.25;;;;;;;;;;5015092;28;20033;-74
2021/05/07 07:54:41;;;;;;;5.65;2.97;;;;;;;;;;5007827;28;20036;-74
2021/05/07 07:57:07;;;;;;;4.18;3.30;;;;;;;;;;5005483;28;20068;-74
2021/05/07 07:59:33;;;;;;;4.32;3.58;;;;;;;;;;5010338;28;20025;-75
2021/05/07 08:02:01;;;;;;;4.13;3.40;;;;;;;;;;5007209;28;20029;-76
2021/05/07 08:04:29;;;;;;;4.75;3.60;;;;;;;;;;5008701;28;20033;-74
2021/05/07 08:06:54;;;;;;;4.03;3.00;;;;;;;;;;5006850;28;20436;-74
2021/05/07 08:09:21;;;;;;;4.43;3.00;;;;;;;;;;5007448;28;20117;-75
2021/05/07 08:11:47;;;;;;;4.63;3.30;;;;;;;;;;5009319;28;20109;-74
2021/05/07 08:14:14;;;;;;;4.28;3.33;;;;;;;;;;5009229;28;20110;-77
2021/05/07 08:16:39;;;;;;;4.45;3.25;;;;;;;;;;5008972;28;20089;-75
2021/05/07 08:19:05;;;;;;;5.15;3.10;;;;;;;;;;5010731;28;20038;-75
2021/05/07 08:21:30;;;;;;;5.03;3.20;;;;;;;;;;5017564;28;20021;-76
2021/05/07 08:23:55;;;;;;;4.00;2.95;;;;;;;;;;4990846;28;20072;-76
2021/05/07 08:26:21;;;;;;;4.65;3.53;;;;;;;;;;5007923;28;20464;-75
2021/05/07 08:28:46;;;;;;;4.05;3.22;;;;;;;;;;5004494;28;20512;-74
2021/05/07 08:31:11;;;;;;;5.15;3.60;;;;;;;;;;5008755;28;20065;-76
2021/05/07 08:33:37;;;;;;;4.25;3.08;;;;;;;;;;5007658;28;20029;-76
2021/05/07 08:36:05;;;;;;;3.60;2.90;;;;;;;;;;5008969;28;20661;-75
2021/05/07 08:38:30;;;;;;;4.63;2.92;;;;;;;;;;5008245;28;20026;-75
2021/05/07 08:40:56;;;;;;;3.75;2.90;;;;;;;;;;5001530;28;20036;-76
2021/05/07 08:43:21;;;;;;;4.25;2.92;;;;;;;;;;5000233;28;20026;-75
2021/05/07 08:45:47;;;;;;;3.17;2.60;;;;;;;;;;5007641;28;20075;-74
2021/05/07 08:48:12;;;;;;;4.22;2.97;;;;;;;;;;5008210;28;20453;-75
2021/05/07 08:50:38;;;;;;;3.35;2.55;;;;;;;;;;5008701;28;20021;-75
2021/05/07 08:53:03;;;;;;;3.55;2.58;;;;;;;;;;5008403;28;20112;-75
2021/05/07 08:55:28;;;;;;;4.90;2.95;;;;;;;;;;5008248;28;20057;-75
2021/05/07 08:57:54;;;;;;;3.63;2.35;;;;;;;;;;5007715;28;20127;-75
2021/05/07 09:00:19;;;;;;;2.70;2.20;;;;;;;;;;5003903;28;20029;-74
2021/05/07 09:02:44;;;;;;;4.68;2.63;;;;;;;;;;4999522;28;20030;-75
2021/05/07 09:05:11;;;;;;;3.08;2.30;;;;;;;;;;5003167;28;20113;-74
2021/05/07 09:07:37;;;;;;;4.38;2.78;;;;;;;;;;5008392;28;20500;-75
2021/05/07 09:10:06;;;;;;;3.13;2.00;;;;;;;;;;5008671;28;20028;-76
2021/05/07 09:12:32;;;;;;;5.32;2.70;;;;;;;;;;5008697;28;20048;-74
2021/05/07 09:14:58;;;;;;;3.30;2.40;;;;;;;;;;5007761;28;20056;-75
2021/05/07 09:17:24;;;;;;;4.55;2.30;;;;;;;;;;5003647;28;20034;-74
2021/05/07 09:19:50;;;;;;;7.25;2.60;;;;;;;;;;5002572;28;20030;-74
2021/05/07 09:22:25;;;;;;;4.20;2.53;;;;;;;;;;5002823;28;20391;-74
2021/05/07 09:24:50;;;;;;;3.58;2.40;;;;;;;;;;4995841;28;20045;-76
2021/05/07 09:27:22;;;;;;;3.55;2.67;;;;;;;;;;5011369;28;20396;-75
2021/05/07 09:29:50;;;;;;;3.40;2.38;;;;;;;;;;5009460;28;20018;-74
2021/05/07 09:32:15;;;;;;;3.17;2.40;;;;;;;;;;5003012;28;20045;-74
2021/05/07 09:34:42;;;;;;;6.53;2.90;;;;;;;;;;4992838;28;20070;-74
2021/05/07 09:37:14;;;;;;;3.65;2.53;;;;;;;;;;5032641;28;20367;-73
2021/05/07 09:39:39;;;;;;;3.30;2.50;;;;;;;;;;5005858;28;20033;-74
2021/05/07 09:42:04;;;;;;;3.38;2.50;;;;;;;;;;5008317;28;20419;-75
2021/05/07 09:44:34;;;;;;;3.00;2.30;;;;;;;;;;5009032;28;20096;-73
2021/05/07 09:46:59;;;;;;;3.58;2.22;;;;;;;;;;5007071;28;20025;-73
2021/05/07 09:49:29;;;;;;;4.05;2.38;;;;;;;;;;5006327;28;20582;-75
2021/05/07 09:51:55;;;;;;;3.55;2.38;;;;;;;;;;5007112;28;20709;-74
2021/05/07 09:54:20;;;;;;;3.13;2.20;;;;;;;;;;5006733;28;20135;-74
2021/05/07 09:56:46;;;;;;;4.07;2.22;;;;;;;;;;5008617;28;20518;-74
2021/05/07 09:59:14;;;;;;;2.63;1.98;;;;;;;;;;4998982;28;20448;-73
2021/05/07 10:01:42;;;;;;;4.30;2.13;;;;;;;;;;5002966;28;20041;-74
2021/05/07 10:04:07;;;;;;;;;;;;;;;;;;4996428;28;20033;-74
2021/05/07 10:06:35;;;;;;;3.27;2.23;;;;;;;;;;5007279;28;19913;-75
2021/05/07 10:09:00;;;;;;;;;;;;;;;;;;5025731;28;20243;-74
2021/05/07 10:11:32;;;;;;;2.17;1.92;;;;;;;;;;5021530;28;19964;-75
2021/05/07 10:14:04;;;;;;;5.22;2.05;;;;;;;;;;4983640;28;20034;-74
2021/05/07 10:16:29;;;;;;;2.60;1.90;;;;;;;;;;5032504;28;20109;-75
2021/05/07 10:19:07;;;;;;;3.30;2.13;;;;;;;;;;4988449;28;20116;-74
2021/05/07 10:21:37;;;;;;;4.75;2.05;;;;;;;;;;5011810;28;20108;-75
2021/05/07 10:24:02;;;;;;;2.17;1.80;;;;;;;;;;5006251;28;20045;-74
2021/05/07 10:26:43;;;;;;;3.05;2.20;;;;;;;;;;4987862;28;20066;-74
2021/05/07 10:29:17;;;;;;;2.90;2.10;;;;;;;;;;4998485;28;20025;-75
2021/05/07 10:32:02;;;;;;;3.03;1.92;;;;;;;;;;5010250;28;20471;-75
2021/05/07 10:34:27;;;;;;;2.92;2.00;;;;;;;;;;5002657;28;20018;-75
2021/05/07 10:36:54;;;;;;;2.95;2.10;;;;;;;;;;5005861;28;20014;-75
2021/05/07 10:39:20;;;;;;;2.83;1.70;;;;;;;;;;5005766;28;20021;-74
2021/05/07 10:41:45;;;;;;;1.75;1.55;;;;;;;;;;5005323;28;20017;-74
2021/05/07 10:44:13;;;;;;;3.08;2.20;;;;;;;;;;5005845;28;20026;-74
2021/05/07 10:46:38;;;;;;;2.63;1.92;;;;;;;;;;5008087;28;20074;-74
2021/05/07 10:49:03;;;;;;;2.90;2.08;;;;;;;;;;5005623;28;20053;-74
2021/05/07 10:51:32;;;;;;;2.53;1.75;;;;;;;;;;5006887;28;20021;-74
2021/05/07 10:54:10;;;;;;;4.43;2.08;;;;;;;;;;4987947;28;20022;-74
2021/05/07 10:56:37;;;;;;;2.17;1.73;;;;;;;;;;5007840;28;20057;-74
2021/05/07 10:59:12;;;;;;;2.58;1.80;;;;;;;;;;5011510;28;20096;-74
2021/05/07 11:01:37;;;;;;;2.30;1.70;;;;;;;;;;5006442;28;20014;-75
2021/05/07 11:04:12;;;;;;;2.08;1.80;;;;;;;;;;5009655;28;20381;-74
2021/05/07 11:06:42;;;;;;;4.60;1.70;;;;;;;;;;5007094;28;20021;-74
2021/05/07 11:09:27;;;;;;;2.30;1.80;;;;;;;;;;5007975;28;20022;-74
2021/05/07 11:11:53;;;;;;;3.17;2.03;;;;;;;;;;5007606;28;20129;-74
2021/05/07 11:14:19;;;;;;;2.45;2.10;;;;;;;;;;5005451;28;20026;-73
2021/05/07 11:16:45;;;;;;;2.75;2.00;;;;;;;;;;5008056;28;20026;-74
2021/05/07 11:19:23;;;;;;;2.47;2.00;;;;;;;;;;5007617;28;20029;-73
2021/05/07 11:21:48;;;;;;;;;;;;;;;;;;5008263;28;20093;-75
2021/05/07 11:24:13;;;;;;;2.53;1.67;;;;;;;;;;5008715;28;19917;-73
2021/05/07 11:26:38;;;;;;;2.35;1.73;;;;;;;;;;5006879;28;20123;-75
2021/05/07 11:29:04;;;;;;;2.15;1.60;;;;;;;;;;5009400;28;20034;-75
2021/05/07 11:31:32;;;;;;;2.80;1.55;;;;;;;;;;5008314;28;20036;-74
2021/05/07 11:33:57;;;;;;;1.55;1.45;;;;;;;;;;5007199;28;20590;-75
2021/05/07 11:36:22;;;;;;;1.85;1.50;;;;;;;;;;5003027;28;20056;-75
2021/05/07 11:38:48;;;;;;;2.90;1.67;;;;;;;;;;4998057;28;20065;-75
2021/05/07 11:41:16;;;;;;;3.70;1.70;;;;;;;;;;5003500;28;20076;-74
2021/05/07 11:43:41;;;;;;;1.70;1.60;;;;;;;;;;4998518;28;20129;-74
2021/05/07 11:46:07;;;;;;;3.20;1.77;;;;;;;;;;5000325;28;20117;-74
2021/05/07 11:48:33;;;;;;;1.73;1.50;;;;;;;;;;5005673;28;20022;-74
2021/05/07 11:51:05;;;;;;;2.07;1.60;;;;;;;;;;5007008;28;20563;-74
2021/05/07 11:53:31;;;;;;;2.20;1.60;;;;;;;;;;5007404;28;20341;-74
2021/05/07 11:55:59;;;;;;;2.17;1.65;;;;;;;;;;5009314;28;20507;-74
2021/05/07 11:58:32;;;;;;;3.20;1.83;;;;;;;;;;5007847;28;20057;-74
2021/05/07 12:00:57;;;;;;;2.90;1.65;;;;;;;;;;5007941;28;20065;-73
2021/05/07 12:03:25;;;;;;;3.30;1.70;;;;;;;;;;5007621;28;20726;-74
2021/05/07 12:05:50;;;;;;;;;;;;;;;;;;5008152;28;20125;-73
2021/05/07 12:08:24;;;;;;;2.53;1.60;;;;;;;;;;4999186;28;20364;-74
2021/05/07 12:10:50;;;;;;;4.22;1.77;;;;;;;;;;4989597;28;20096;-75
2021/05/07 12:13:22;;;;;;;3.85;1.88;;;;;;;;;;4988145;28;20026;-75
2021/05/07 12:15:51;;;;;;;3.90;2.17;;;;;;;;;;5001012;28;20168;-75
2021/05/07 12:18:18;;;;;;;2.97;1.77;;;;;;;;;;5007595;28;20026;-75
2021/05/07 12:20:45;;;;;;;2.47;1.70;;;;;;;;;;5008046;28;20026;-75
2021/05/07 12:23:10;;;;;;;3.13;1.83;;;;;;;;;;5007138;28;20022;-74
2021/05/07 12:25:40;;;;;;;4.28;1.50;;;;;;;;;;5008530;28;20439;-74
2021/05/07 12:28:12;;;;;;;1.77;1.23;;;;;;;;;;5008254;28;20075;-75
2021/05/07 12:30:37;;;;;;;1.83;1.50;;;;;;;;;;5009200;28;20531;-74
2021/05/07 12:33:07;;;;;;;2.38;1.50;;;;;;;;;;5007408;28;20145;-74
2021/05/07 12:35:36;;;;;;;2.63;1.70;;;;;;;;;;5007442;28;20072;-74
2021/05/07 12:38:18;;;;;;;2.28;1.70;;;;;;;;;;5007982;28;20115;-75
2021/05/07 12:40:46;;;;;;;2.33;1.60;;;;;;;;;;5007638;28;20026;-74
2021/05/07 12:43:11;;;;;;;2.03;1.50;;;;;;;;;;5004848;28;20057;-74
2021/05/07 12:45:37;;;;;;;1.42;1.33;;;;;;;;;;5008324;28;20049;-74
2021/05/07 12:48:05;;;;;;;2.40;1.60;;;;;;;;;;5007386;28;20018;-74
2021/05/07 12:50:30;;;;;;;4.60;2.03;;;;;;;;;;5005420;28;20562;-74
2021/05/07 12:52:56;;;;;;;2.05;1.77;;;;;;;;;;5003901;28;20036;-74
2021/05/07 12:55:21;;;;;;;2.67;2.10;;;;;;;;;;5007197;28;20586;-75
2021/05/07 12:57:46;;;;;;;3.70;1.80;;;;;;;;;;5007822;28;20278;-74
2021/05/07 13:00:12;;;;;;;2.67;2.08;;;;;;;;;;5008677;28;20105;-75
2021/05/07 13:02:38;;;;;;;2.58;1.75;;;;;;;;;;5004818;28;20041;-74
2021/05/07 13:05:03;;;;;;;2.50;1.80;;;;;;;;;;5007492;28;20022;-75
2021/05/07 13:07:30;;;;;;;1.73;1.63;;;;;;;;;;5005181;28;20105;-74
2021/05/07 13:09:56;;;;;;;4.25;1.80;;;;;;;;;;5006703;28;20038;-75
2021/05/07 13:12:21;;;;;;;1.83;1.60;;;;;;;;;;5007404;28;20057;-75
2021/05/07 13:14:46;;;;;;;2.22;1.58;;;;;;;;;;5006945;28;20040;-78
2021/05/07 13:17:18;;;;;;;2.15;1.60;;;;;;;;;;5002357;28;20108;-78
2021/05/07 13:19:44;;;;;;;1.83;1.70;;;;;;;;;;5006357;28;20022;-78
2021/05/07 13:22:09;;;;;;;2.75;1.85;;;;;;;;;;5005477;28;20029;-77
2021/05/07 13:24:35;;;;;;;3.05;1.67;;;;;;;;;;5004807;28;20029;-78
2021/05/07 13:27:00;;;;;;;1.75;1.40;;;;;;;;;;5004737;28;20136;-77
2021/05/07 13:29:25;;;;;;;2.22;1.60;;;;;;;;;;5006812;28;20092;-77
2021/05/07 13:31:51;;;;;;;3.45;1.70;;;;;;;;;;5002120;28;20331;-77
2021/05/07 13:34:17;;;;;;;1.60;1.48;;;;;;;;;;5006216;28;20025;-76
2021/05/07 13:36:43;;;;;;;2.85;1.80;;;;;;;;;;5005018;28;20487;-76
2021/05/07 13:39:08;;;;;;;2.20;1.70;;;;;;;;;;5003640;28;20033;-76
2021/05/07 13:41:33;;;;;;;3.45;1.75;;;;;;;;;;5004142;28;20535;-77
2021/05/07 13:43:59;;;;;;;2.65;1.80;;;;;;;;;;5003596;28;20026;-76
2021/05/07 13:46:24;;;;;;;2.80;1.88;;;;;;;;;;5005538;28;20033;-76
2021/05/07 13:48:49;;;;;;;2.70;1.60;;;;;;;;;;5005763;28;20028;-77
2021/05/07 13:51:14;;;;;;;2.17;1.60;;;;;;;;;;5006624;28;20132;-77
2021/05/07 13:53:39;;;;;;;1.73;1.58;;;;;;;;;;5005559;28;20502;-77
2021/05/07 13:56:05;;;;;;;2.73;1.73;;;;;;;;;;5005563;28;20033;-77
2021/05/07 13:58:30;;;;;;;1.40;1.30;;;;;;;;;;5007450;28;20263;-77
2021/05/07 14:00:55;;;;;;;2.50;1.48;;;;;;;;;;5006899;28;20208;-77
2021/05/07 14:03:21;;;;;;;1.58;1.30;;;;;;;;;;5006368;28;20484;-77
2021/05/07 14:05:46;;;;;;;2.42;1.50;;;;;;;;;;5011209;28;20024;-78
2021/05/07 14:08:12;;;;;;;2.65;1.65;;;;;;;;;;5009015;28;20018;-78
2021/05/07 14:10:37;;;;;;;2.47;1.40;;;;;;;;;;5008154;28;20041;-77
2021/05/07 14:13:02;;;;;;;1.00;1.00;;;;;;;;;;5001316;28;20503;-77
2021/05/07 14:15:28;;;;;;;2.63;1.25;;;;;;;;;;4995125;28;20026;-78
2021/05/07 14:17:53;;;;;;;1.35;1.20;;;;;;;;;;4995355;28;20030;-76
2021/05/07 14:20:18;;;;;;;1.40;1.30;;;;;;;;;;5025672;28;20356;-77
2021/05/07 14:22:43;;;;;;;3.85;1.27;;;;;;;;;;4996088;28;20042;-77
2021/05/07 14:25:09;;;;;;;1.25;1.02;;;;;;;;;;4996778;28;20424;-77
2021/05/07 14:27:34;;;;;;;1.52;1.35;;;;;;;;;;4995992;28;20516;-76
2021/05/07 14:30:02;;;;;;;2.25;1.35;;;;;;;;;;4996394;28;20029;-77
2021/05/07 14:32:27;;;;;;;1.33;1.23;;;;;;;;;;4995776;28;20026;-77
2021/05/07 14:34:52;;;;;;;1.55;1.15;;;;;;;;;;4994731;28;20014;-77
2021/05/07 14:37:17;;;;;;;2.22;1.30;;;;;;;;;;4996099;28;20452;-76
2021/05/07 14:39:43;;;;;;;1.50;1.38;;;;;;;;;;4998555;28;20065;-79
2021/05/07 14:42:09;;;;;;;2.70;1.40;;;;;;;;;;4995071;28;20033;-78
2021/05/07 14:44:34;;;;;;;2.65;1.42;;;;;;;;;;4995688;28;20098;-77